Time;durP1;ratioP1;P1;durP2;ratioP2;P2;SDS_P1;SDS_P2;PMS_P1;PMS_P2;Temp;Humidity;BMP_temperature;BMP_pressure;BME280_temperature;BME280_humidity;BME280_pressure;Samples;Min_cycle;Max_cycle;Signal;HPM_P1;HPM_P2
2023/04/17 00:02:54;;;;;;;15.95;14.35;;;22.70;73.70;;;;;;6257976;28;88414;-83
2023/04/17 00:05:57;;;;;;;15.95;14.35;;;22.70;73.70;;;;;;6256033;28;89499;-83
2023/04/17 00:08:59;;;;;;;15.98;14.27;;;22.70;73.80;;;;;;6256335;28;89553;-83
2023/04/17 00:12:01;;;;;;;16.58;14.80;;;22.70;73.80;;;;;;6255132;28;90127;-83
2023/04/17 00:15:05;;;;;;;16.13;14.52;;;22.70;73.80;;;;;;6251521;28;89091;-83
2023/04/17 00:18:07;;;;;;;16.35;14.50;;;22.70;73.90;;;;;;6256679;28;89057;-84
2023/04/17 00:21:09;;;;;;;15.35;13.73;;;22.70;73.90;;;;;;6258381;28;89116;-83
2023/04/17 00:24:12;;;;;;;16.00;14.40;;;22.70;73.90;;;;;;6257236;28;89098;-83
2023/04/17 00:27:14;;;;;;;16.58;14.55;;;22.70;73.90;;;;;;6244665;28;89167;-84
2023/04/17 00:30:18;;;;;;;16.05;14.45;;;22.70;73.90;;;;;;6243099;28;88163;-82
2023/04/17 00:33:20;;;;;;;15.40;13.82;;;22.70;74.00;;;;;;6258140;28;88437;-79
2023/04/17 00:36:22;;;;;;;15.52;13.93;;;22.60;74.00;;;;;;6253279;28;89035;-85
2023/04/17 00:39:24;;;;;;;15.30;13.80;;;22.60;74.00;;;;;;6249885;28;89416;-84
2023/04/17 00:42:26;;;;;;;15.13;13.63;;;22.60;74.00;;;;;;6249930;28;90024;-84
2023/04/17 00:45:30;;;;;;;15.52;13.93;;;22.60;74.10;;;;;;6250346;28;87955;-83
2023/04/17 00:48:33;;;;;;;15.30;13.63;;;22.60;74.10;;;;;;6255039;28;88854;-84
2023/04/17 00:51:35;;;;;;;14.70;13.20;;;22.60;74.20;;;;;;6256313;28;88507;-83
2023/04/17 00:54:38;;;;;;;15.25;13.50;;;22.60;74.20;;;;;;6253026;28;88427;-82
2023/04/17 00:57:41;;;;;;;15.10;13.50;;;22.60;74.20;;;;;;6256260;28;89225;-83
2023/04/17 01:00:45;;;;;;;15.20;13.70;;;22.50;74.20;;;;;;6255686;28;89928;-83
2023/04/17 01:03:47;;;;;;;14.77;13.38;;;22.50;75.10;;;;;;6254151;27;88670;-84
2023/04/17 01:06:49;;;;;;;14.38;12.88;;;22.50;74.20;;;;;;6254246;28;88209;-83
2023/04/17 01:09:51;;;;;;;14.02;12.63;;;22.50;74.20;;;;;;6255761;28;89567;-83
2023/04/17 01:13:02;;;;;;;14.95;12.80;;;22.50;74.20;;;;;;6242246;28;90296;-83
2023/04/17 01:16:06;;;;;;;13.80;12.40;;;22.50;74.30;;;;;;6237264;28;89174;-83
2023/04/17 01:19:09;;;;;;;13.75;12.35;;;22.50;74.40;;;;;;6247176;28;89319;-84
2023/04/17 01:22:11;;;;;;;14.75;13.25;;;22.50;74.20;;;;;;6251050;28;89447;-83
2023/04/17 01:25:15;;;;;;;12.82;11.60;;;22.50;74.20;;;;;;6255951;28;89052;-81
2023/04/17 01:28:17;;;;;;;14.73;12.98;;;22.50;74.20;;;;;;6247637;28;89043;-84
2023/04/17 01:31:19;;;;;;;13.85;12.55;;;22.50;74.10;;;;;;6248997;28;88131;-82
2023/04/17 01:34:21;;;;;;;13.75;12.45;;;22.50;74.10;;;;;;6254877;28;88717;-84
2023/04/17 01:37:23;;;;;;;13.45;12.05;;;22.50;74.00;;;;;;6252329;28;89502;-83
2023/04/17 01:40:27;;;;;;;13.80;12.40;;;22.50;74.00;;;;;;6236265;28;87948;-82
2023/04/17 01:43:29;;;;;;;13.50;12.20;;;22.50;74.00;;;;;;6241605;28;90219;-83
2023/04/17 01:46:31;;;;;;;13.48;12.07;;;22.50;74.00;;;;;;6247294;28;89490;-83
2023/04/17 01:49:33;;;;;;;13.30;12.00;;;22.50;74.00;;;;;;6250511;28;89179;-83
2023/04/17 01:52:35;;;;;;;13.77;12.38;;;22.50;74.00;;;;;;6251897;28;89058;-83
2023/04/17 01:55:39;;;;;;;13.95;12.45;;;22.40;74.00;;;;;;6242017;27;89093;-83
2023/04/17 01:58:41;;;;;;;12.90;11.48;;;22.50;74.00;;;;;;6254880;28;89232;-83
2023/04/17 02:01:44;;;;;;;13.25;11.90;;;22.40;74.10;;;;;;6243291;28;89482;-84
2023/04/17 02:04:46;;;;;;;12.63;11.40;;;22.40;74.00;;;;;;6254979;28;88575;-83
2023/04/17 02:07:50;;;;;;;12.32;11.13;;;22.40;74.20;;;;;;6254101;28;89123;-84
2023/04/17 02:10:53;;;;;;;13.15;11.85;;;22.40;74.20;;;;;;6254827;28;89123;-83
2023/04/17 02:13:55;;;;;;;13.20;11.90;;;22.40;74.20;;;;;;6237047;28;89825;-83
2023/04/17 02:16:58;;;;;;;12.52;11.23;;;22.30;74.10;;;;;;6253035;27;89060;-84
2023/04/17 02:20:00;;;;;;;13.38;11.73;;;22.40;74.20;;;;;;6249229;28;88916;-84
2023/04/17 02:23:03;;;;;;;12.70;11.45;;;22.30;74.20;;;;;;6245888;28;89287;-83
2023/04/17 02:26:06;;;;;;;12.73;11.45;;;22.30;74.20;;;;;;6254371;27;89471;-83
2023/04/17 02:29:08;;;;;;;12.30;11.10;;;22.30;74.20;;;;;;6255226;28;89021;-83
2023/04/17 02:32:10;;;;;;;12.63;11.40;;;22.30;74.70;;;;;;6253629;28;87948;-83
2023/04/17 02:35:12;;;;;;;12.10;10.90;;;22.30;74.20;;;;;;6254242;28;88261;-82
2023/04/17 02:38:15;;;;;;;12.68;11.38;;;22.30;74.20;;;;;;6253477;28;89057;-83
2023/04/17 02:41:18;;;;;;;12.30;11.10;;;22.30;74.20;;;;;;6249496;28;88001;-83
2023/04/17 02:44:20;;;;;;;11.98;10.77;;;22.30;74.20;;;;;;6226989;28;90354;-83
2023/04/17 02:47:22;;;;;;;11.52;10.43;;;22.30;74.20;;;;;;6249524;28;87957;-83
2023/04/17 02:50:24;;;;;;;11.75;10.55;;;22.30;74.00;;;;;;6253590;28;89409;-82
2023/04/17 02:53:26;;;;;;;12.27;11.07;;;22.30;74.00;;;;;;6252099;28;89411;-83
2023/04/17 02:56:30;;;;;;;11.63;10.50;;;22.30;74.90;;;;;;6253889;28;89196;-84
2023/04/17 02:59:32;;;;;;;11.90;10.70;;;22.40;74.00;;;;;;6235862;28;88201;-82
2023/04/17 03:02:34;;;;;;;12.07;10.88;;;22.30;73.90;;;;;;6250447;28;89000;-84
2023/04/17 03:05:37;;;;;;;11.82;10.63;;;22.40;73.90;;;;;;6253492;28;88227;-84
2023/04/17 03:08:39;;;;;;;11.57;10.38;;;22.30;73.80;;;;;;6253607;28;89546;-84
2023/04/17 03:11:42;;;;;;;11.57;10.38;;;22.30;73.80;;;;;;6252364;28;89093;-83
2023/04/17 03:14:44;;;;;;;11.95;10.75;;;22.40;73.80;;;;;;6252108;28;90336;-84
2023/04/17 03:17:47;;;;;;;11.00;9.90;;;22.30;74.00;;;;;;6241851;28;88980;-84
2023/04/17 03:20:49;;;;;;;10.93;9.82;;;22.30;73.90;;;;;;6244604;28;89095;-83
2023/04/17 03:23:51;;;;;;;11.75;10.65;;;22.30;74.00;;;;;;6251499;28;88171;-84
2023/04/17 03:26:55;;;;;;;11.52;10.27;;;22.20;73.90;;;;;;6256620;28;89159;-84
2023/04/17 03:29:57;;;;;;;11.10;10.00;;;22.20;74.00;;;;;;6256885;28;89111;-83
2023/04/17 03:32:59;;;;;;;11.50;10.30;;;22.20;73.90;;;;;;6252631;28;88129;-82
2023/04/17 03:36:01;;;;;;;10.82;9.82;;;22.20;74.00;;;;;;6258231;28;90269;-84
2023/04/17 03:39:03;;;;;;;10.68;9.60;;;22.20;74.00;;;;;;6257844;28;89057;-84
2023/04/17 03:42:06;;;;;;;11.10;10.02;;;22.20;74.00;;;;;;6257903;28;91514;-83
2023/04/17 03:45:10;;;;;;;11.55;10.45;;;22.20;74.00;;;;;;6254512;28;89349;-83
2023/04/17 03:48:12;;;;;;;10.75;9.65;;;22.20;73.90;;;;;;6255036;28;89109;-83
2023/04/17 03:51:14;;;;;;;10.70;9.60;;;22.20;73.80;;;;;;6258196;28;89306;-84
2023/04/17 03:54:16;;;;;;;10.80;9.80;;;22.20;73.80;;;;;;6256424;28;89103;-85
2023/04/17 03:57:20;;;;;;;10.30;9.32;;;22.20;73.80;;;;;;6248287;28;89051;-77
2023/04/17 04:00:22;;;;;;;9.93;8.93;;;22.20;73.80;;;;;;6258647;28;89111;-76
2023/04/17 04:03:24;;;;;;;10.35;9.35;;;22.20;74.00;;;;;;6276372;27;89158;-78
2023/04/17 04:06:28;;;;;;;10.65;9.57;;;22.30;74.10;;;;;;6269367;27;88549;-78
2023/04/17 04:09:30;;;;;;;11.60;10.40;;;22.30;74.30;;;;;;6261332;27;89530;-73
2023/04/17 04:12:34;;;;;;;12.93;10.43;;;22.30;75.50;;;;;;6246420;27;89051;-82
2023/04/17 04:15:36;;;;;;;12.73;9.50;;;22.30;75.50;;;;;;6257559;27;90108;-81
2023/04/17 04:18:38;;;;;;;10.88;9.77;;;22.30;75.00;;;;;;6263204;27;89186;-82
2023/04/17 04:21:41;;;;;;;10.50;9.40;;;22.30;74.90;;;;;;6265594;27;89075;-83
2023/04/17 04:24:43;;;;;;;10.57;9.48;;;22.40;74.80;;;;;;6255541;27;89494;-77
2023/04/17 04:27:48;;;;;;;10.60;9.60;;;22.40;74.70;;;;;;6255729;27;89270;-84
2023/04/17 04:30:52;;;;;;;11.48;9.82;;;22.40;74.90;;;;;;6247388;27;89075;-84
2023/04/17 04:33:54;;;;;;;11.73;9.63;;;22.40;74.90;;;;;;6259555;27;89419;-82
2023/04/17 04:36:56;;;;;;;14.55;10.15;;;22.40;74.90;;;;;;6255688;27;88155;-82
2023/04/17 04:40:09;;;;;;;12.98;9.60;;;22.50;74.90;;;;;;6250948;27;89162;-83
2023/04/17 04:43:13;;;;;;;10.48;9.38;;;22.50;74.90;;;;;;6256223;27;89279;-81
2023/04/17 04:46:15;;;;;;;10.75;9.43;;;22.50;74.90;;;;;;6250019;27;89758;-82
2023/04/17 04:49:17;;;;;;;14.07;9.38;;;22.50;74.80;;;;;;6252829;27;88782;-82
2023/04/17 04:52:19;;;;;;;11.93;9.40;;;22.50;74.70;;;;;;6258798;27;89524;-81
2023/04/17 04:55:21;;;;;;;13.80;9.65;;;22.50;74.70;;;;;;6255789;27;89028;-82
2023/04/17 04:58:25;;;;;;;11.02;9.32;;;22.50;74.70;;;;;;6264382;27;89011;-81
2023/04/17 05:01:28;;;;;;;12.65;9.40;;;22.50;74.50;;;;;;6256410;27;89109;-83
2023/04/17 05:04:30;;;;;;;11.63;8.77;;;22.60;74.50;;;;;;6269838;27;89175;-79
2023/04/17 05:07:32;;;;;;;9.50;8.48;;;22.60;74.50;;;;;;6245599;27;88348;-80
2023/04/17 05:10:34;;;;;;;11.90;9.02;;;22.60;74.50;;;;;;6257292;27;89579;-80
2023/04/17 05:13:38;;;;;;;10.13;8.95;;;22.60;74.40;;;;;;6256784;27;89193;-83
2023/04/17 05:16:40;;;;;;;10.48;8.68;;;22.60;74.30;;;;;;6251495;27;90163;-81
2023/04/17 05:19:42;;;;;;;9.50;8.23;;;22.60;74.30;;;;;;6254551;27;88790;-82
2023/04/17 05:22:44;;;;;;;10.20;9.07;;;22.60;74.30;;;;;;6253369;27;88901;-84
2023/04/17 05:25:46;;;;;;;12.55;9.18;;;22.70;74.30;;;;;;6255089;27;89442;-83
2023/04/17 05:28:50;;;;;;;10.95;8.48;;;22.70;74.30;;;;;;6258234;27;88974;-81
2023/04/17 05:31:52;;;;;;;9.30;8.27;;;22.70;74.30;;;;;;6258173;27;89056;-82
2023/04/17 05:34:54;;;;;;;9.82;8.20;;;22.70;74.20;;;;;;6255960;27;89170;-80
2023/04/17 05:37:56;;;;;;;9.45;8.45;;;22.70;74.20;;;;;;6259381;27;88290;-83
2023/04/17 05:40:58;;;;;;;9.38;8.48;;;22.60;74.10;;;;;;6243333;27;89204;-83
2023/04/17 05:44:01;;;;;;;9.48;8.00;;;22.70;74.10;;;;;;6258624;27;89031;-83
2023/04/17 05:47:03;;;;;;;10.23;8.32;;;22.70;74.10;;;;;;6251884;27;89985;-83
2023/04/17 05:50:07;;;;;;;10.20;8.32;;;22.70;74.10;;;;;;6254331;28;89139;-82
2023/04/17 05:53:09;;;;;;;10.00;8.15;;;22.70;74.00;;;;;;6253369;27;90021;-82
2023/04/17 05:56:11;;;;;;;10.25;8.10;;;22.70;74.10;;;;;;6251595;27;87580;-82
2023/04/17 05:59:15;;;;;;;8.60;7.70;;;22.70;74.00;;;;;;6250319;27;89278;-82
2023/04/17 06:02:17;;;;;;;9.57;7.70;;;22.70;74.00;;;;;;6242254;27;89217;-81
2023/04/17 06:05:19;;;;;;;8.32;7.47;;;22.70;74.00;;;;;;6241814;27;87899;-83
2023/04/17 06:08:21;;;;;;;8.23;7.35;;;22.70;74.10;;;;;;6264818;27;87550;-82
2023/04/17 06:11:24;;;;;;;8.40;7.55;;;22.70;74.10;;;;;;6248410;27;89167;-82
2023/04/17 06:14:27;;;;;;;8.80;7.95;;;22.70;74.10;;;;;;6264429;27;89124;-82
2023/04/17 06:17:30;;;;;;;9.48;7.63;;;22.70;74.10;;;;;;6262023;27;90026;-80
2023/04/17 06:20:32;;;;;;;8.68;7.63;;;22.70;74.20;;;;;;6242586;27;89105;-80
2023/04/17 06:23:34;;;;;;;8.52;7.43;;;22.70;74.20;;;;;;6256432;27;89147;-82
2023/04/17 06:26:36;;;;;;;8.30;7.50;;;22.70;74.20;;;;;;6268225;27;89076;-82
2023/04/17 06:29:39;;;;;;;7.95;7.15;;;22.70;74.20;;;;;;6260284;27;89407;-81
2023/04/17 06:32:42;;;;;;;8.23;7.43;;;22.80;74.20;;;;;;6243954;27;88880;-82
2023/04/17 06:35:44;;;;;;;8.18;7.35;;;22.70;74.20;;;;;;6248982;27;89610;-81
2023/04/17 06:38:46;;;;;;;8.20;7.03;;;22.70;74.20;;;;;;6248757;27;88411;-83
2023/04/17 06:41:49;;;;;;;7.57;6.63;;;22.80;74.30;;;;;;6253615;27;88763;-78
2023/04/17 06:44:53;;;;;;;8.80;7.40;;;22.80;74.30;;;;;;6254959;27;89148;-82
2023/04/17 06:47:55;;;;;;;7.43;6.72;;;22.80;74.40;;;;;;6249556;28;88959;-82
2023/04/17 06:50:57;;;;;;;7.65;6.57;;;22.80;74.30;;;;;;6248951;27;89209;-82
2023/04/17 06:53:59;;;;;;;7.80;6.70;;;22.80;74.20;;;;;;6259886;27;89068;-83
2023/04/17 06:57:04;;;;;;;7.10;6.38;;;22.80;74.20;;;;;;6250627;27;89071;-82
2023/04/17 07:00:10;;;;;;;8.00;6.90;;;22.80;74.20;;;;;;6253304;27;88262;-82
2023/04/17 07:03:12;;;;;;;7.55;6.55;;;22.80;74.20;;;;;;6259044;27;89345;-81
2023/04/17 07:06:14;;;;;;;7.32;5.97;;;22.80;74.20;;;;;;6253497;27;88989;-82
2023/04/17 07:09:16;;;;;;;6.60;6.00;;;22.80;74.20;;;;;;6268121;27;88304;-80
2023/04/17 07:12:18;;;;;;;6.43;5.82;;;22.80;74.20;;;;;;6255822;27;89564;-81
2023/04/17 07:15:22;;;;;;;7.75;6.40;;;22.80;74.20;;;;;;6257238;27;87007;-78
2023/04/17 07:18:25;;;;;;;6.65;5.95;;;22.90;74.20;;;;;;6267572;27;89030;-82
2023/04/17 07:21:27;;;;;;;6.80;6.13;;;22.80;74.10;;;;;;6258478;27;87978;-83
2023/04/17 07:24:33;;;;;;;6.78;5.63;;;22.90;74.20;;;;;;6262093;27;89021;-82
2023/04/17 07:27:37;;;;;;;6.57;5.97;;;22.90;74.20;;;;;;6265139;27;88104;-82
2023/04/17 07:30:41;;;;;;;6.55;5.85;;;22.90;74.20;;;;;;6258430;27;89450;-81
2023/04/17 07:33:43;;;;;;;7.28;5.93;;;22.90;74.20;;;;;;6267565;27;89192;-83
2023/04/17 07:36:46;;;;;;;7.20;5.78;;;22.90;74.20;;;;;;6255397;27;89401;-81
2023/04/17 07:39:50;;;;;;;6.68;5.90;;;22.90;74.20;;;;;;6266918;27;88423;-80
2023/04/17 07:42:52;;;;;;;6.65;5.90;;;22.90;74.20;;;;;;6254836;27;88851;-82
2023/04/17 07:45:57;;;;;;;6.70;6.00;;;22.90;74.20;;;;;;6256727;27;89139;-79
2023/04/17 07:48:59;;;;;;;6.35;5.75;;;22.90;74.20;;;;;;6257269;28;90235;-81
2023/04/17 07:52:02;;;;;;;7.80;5.50;;;22.90;74.20;;;;;;6260398;27;88990;-82
2023/04/17 07:55:04;;;;;;;6.00;5.40;;;22.90;74.20;;;;;;6257083;27;88786;-82
2023/04/17 07:58:06;;;;;;;5.90;5.32;;;22.90;74.30;;;;;;6266788;27;89040;-83
2023/04/17 08:01:09;;;;;;;6.20;4.78;;;22.90;74.30;;;;;;6261592;27;89036;-81
2023/04/17 08:04:11;;;;;;;7.03;5.78;;;22.90;74.30;;;;;;6257999;27;89076;-82
2023/04/17 08:07:14;;;;;;;6.30;5.22;;;22.90;74.40;;;;;;6249825;27;89048;-82
2023/04/17 08:10:16;;;;;;;6.25;5.65;;;22.90;74.30;;;;;;6265488;27;87301;-82
2023/04/17 08:13:18;;;;;;;5.72;5.13;;;22.90;74.30;;;;;;6251449;27;89286;-83
2023/04/17 08:16:21;;;;;;;5.22;4.72;;;22.90;74.40;;;;;;6251239;27;89344;-81
2023/04/17 08:19:23;;;;;;;5.65;4.72;;;22.90;74.40;;;;;;6262957;27;91008;-81
2023/04/17 08:22:27;;;;;;;5.45;4.90;;;22.90;74.40;;;;;;6256032;27;88006;-83
2023/04/17 08:25:29;;;;;;;5.53;4.97;;;22.90;74.40;;;;;;6269627;27;89160;-82
2023/04/17 08:28:31;;;;;;;5.07;4.57;;;22.90;74.40;;;;;;6261275;27;89068;-81
2023/04/17 08:31:35;;;;;;;6.13;4.80;;;22.90;74.40;;;;;;6258230;27;89327;-81
2023/04/17 08:34:37;;;;;;;5.70;5.05;;;22.90;74.20;;;;;;6253301;27;89130;-81
2023/04/17 08:37:40;;;;;;;5.25;4.75;;;23.00;74.40;;;;;;6256444;27;89077;-76
2023/04/17 08:40:45;;;;;;;6.63;4.90;;;23.00;74.40;;;;;;6260353;27;88339;-79
2023/04/17 08:43:49;;;;;;;5.78;4.68;;;23.00;74.30;;;;;;6270116;27;89156;-81
2023/04/17 08:46:53;;;;;;;5.68;4.88;;;23.00;74.50;;;;;;6265046;27;89055;-81
2023/04/17 08:49:55;;;;;;;6.03;4.60;;;23.00;74.70;;;;;;6270608;27;90822;-80
2023/04/17 08:52:57;;;;;;;6.00;4.65;;;23.00;74.60;;;;;;6262223;27;88063;-81
2023/04/17 08:56:04;;;;;;;6.50;4.78;;;23.00;74.70;;;;;;6256474;27;89372;-81
2023/04/17 08:59:07;;;;;;;5.57;4.65;;;23.00;74.60;;;;;;6260342;27;89182;-81
2023/04/17 09:02:10;;;;;;;4.88;4.47;;;23.10;74.70;;;;;;6266017;27;89386;-81
2023/04/17 09:05:20;;;;;;;5.63;4.18;;;23.00;74.50;;;;;;6255403;27;89191;-81
2023/04/17 09:08:23;;;;;;;5.25;4.50;;;23.10;74.60;;;;;;6252886;27;89053;-84
2023/04/17 09:11:26;;;;;;;6.45;4.55;;;23.10;74.50;;;;;;6257256;27;88579;-81
2023/04/17 09:14:31;;;;;;;5.10;4.60;;;23.10;74.40;;;;;;6257326;27;89028;-80
2023/04/17 09:17:36;;;;;;;4.78;4.22;;;23.10;74.40;;;;;;6248885;27;89468;-82
2023/04/17 09:20:49;;;;;;;4.63;4.20;;;23.00;74.30;;;;;;6250485;27;89854;-81
2023/04/17 09:23:54;;;;;;;4.63;4.13;;;23.10;74.30;;;;;;6249744;27;89068;-82
2023/04/17 09:26:56;;;;;;;4.68;4.25;;;23.10;74.40;;;;;;6250375;27;89061;-80
2023/04/17 09:30:02;;;;;;;4.78;4.28;;;23.10;74.40;;;;;;6256571;27;89615;-80
2023/04/17 09:33:07;;;;;;;5.32;4.40;;;23.10;74.50;;;;;;6253365;27;89404;-81
2023/04/17 09:36:21;;;;;;;4.63;4.13;;;23.00;74.40;;;;;;6247006;27;87687;-80
2023/04/17 09:39:23;;;;;;;4.50;4.10;;;23.10;74.40;;;;;;6245821;27;89090;-82
2023/04/17 09:42:26;;;;;;;4.43;4.00;;;23.10;74.40;;;;;;6255975;27;88557;-82
2023/04/17 09:45:32;;;;;;;4.40;4.00;;;23.00;74.30;;;;;;6249523;27;89070;-81
2023/04/17 09:48:35;;;;;;;5.13;4.10;;;23.10;74.40;;;;;;6250508;27;89245;-82
2023/04/17 09:51:37;;;;;;;4.22;3.70;;;23.10;74.40;;;;;;6251946;27;89239;-81
2023/04/17 09:54:41;;;;;;;4.20;3.80;;;23.10;74.30;;;;;;6257575;27;89001;-81
2023/04/17 09:57:44;;;;;;;4.05;3.63;;;23.10;74.40;;;;;;6256074;27;89605;-82
2023/04/17 10:00:46;;;;;;;4.45;4.05;;;23.10;74.30;;;;;;6254784;27;89340;-80
2023/04/17 10:03:50;;;;;;;4.45;4.03;;;23.10;74.40;;;;;;6251807;27;89242;-81
2023/04/17 10:06:52;;;;;;;5.53;3.63;;;23.10;74.30;;;;;;6252665;28;89322;-78
2023/04/17 10:09:54;;;;;;;23.05;9.40;;;23.10;74.50;;;;;;6249914;28;88994;-75
2023/04/17 10:12:59;;;;;;;22.48;11.45;;;23.10;77.10;;;;;;6235109;28;88233;-79
2023/04/17 10:16:01;;;;;;;9.60;5.93;;;23.10;80.20;;;;;;6240909;28;89106;-79
2023/04/17 10:19:30;;;;;;;7.75;4.90;;;23.20;77.90;;;;;;6243297;28;89268;-80
2023/04/17 10:22:33;;;;;;;7.65;4.80;;;23.20;76.20;;;;;;6244675;28;90374;-77
2023/04/17 10:25:35;;;;;;;7.10;4.55;;;23.30;75.80;;;;;;6255272;28;89165;-79
2023/04/17 10:28:48;;;;;;;5.65;4.15;;;23.30;75.50;;;;;;6241220;28;89249;-78
2023/04/17 10:32:24;;;;;;;6.95;4.40;;;23.30;75.30;;;;;;6250574;27;89117;-80
2023/04/17 10:35:46;;;;;;;5.30;4.07;;;23.30;75.20;;;;;;6252501;28;89145;-78
2023/04/17 10:38:49;;;;;;;7.68;4.60;;;23.30;75.10;;;;;;6244364;28;89068;-77
2023/04/17 10:42:04;;;;;;;4.65;3.72;;;23.30;75.00;;;;;;6252599;28;89193;-76
2023/04/17 10:45:20;;;;;;;5.82;3.95;;;23.30;75.00;;;;;;6240525;27;88439;-79
2023/04/17 10:48:26;;;;;;;5.20;3.70;;;23.30;75.00;;;;;;6249967;28;89097;-81
2023/04/17 10:51:43;;;;;;;5.05;4.10;;;23.30;75.00;;;;;;6239359;28;89021;-74
2023/04/17 10:55:03;;;;;;;4.07;3.67;;;23.30;75.00;;;;;;6242762;28;90508;-73
2023/04/17 10:58:14;;;;;;;5.15;3.70;;;23.30;74.90;;;;;;6232158;28;89455;-73
2023/04/17 11:01:16;;;;;;;6.22;3.67;;;23.40;74.90;;;;;;6254779;28;89311;-73
2023/04/17 11:04:20;;;;;;;4.50;3.75;;;23.30;74.70;;;;;;6249381;28;89153;-74
2023/04/17 11:07:24;;;;;;;5.55;3.63;;;23.40;74.60;;;;;;6239910;28;89024;-74
2023/04/17 11:10:26;;;;;;;3.90;3.50;;;23.30;74.50;;;;;;6247391;28;89596;-75
2023/04/17 11:13:33;;;;;;;4.35;3.78;;;23.30;74.50;;;;;;6250020;28;89166;-74
2023/04/17 11:16:37;;;;;;;4.85;3.88;;;23.30;74.50;;;;;;6254969;28;89369;-73
2023/04/17 11:19:39;;;;;;;5.18;3.72;;;23.30;74.40;;;;;;6253111;28;89124;-74
2023/04/17 11:22:43;;;;;;;4.22;3.33;;;23.30;74.50;;;;;;6247607;28;89463;-73
2023/04/17 11:25:46;;;;;;;3.95;3.40;;;23.30;74.50;;;;;;6247820;28;90576;-74
2023/04/17 11:28:48;;;;;;;3.85;3.40;;;23.30;74.50;;;;;;6243145;28;89752;-71
2023/04/17 11:31:51;;;;;;;4.40;3.72;;;23.30;74.50;;;;;;6253285;28;89249;-73
2023/04/17 11:34:55;;;;;;;4.72;3.72;;;23.30;74.50;;;;;;6244663;28;89208;-74
2023/04/17 11:38:19;;;;;;;5.45;3.60;;;23.30;74.50;;;;;;6245776;28;89123;-73
2023/04/17 11:41:21;;;;;;;4.38;3.50;;;23.30;74.50;;;;;;6253349;28;89185;-73
2023/04/17 11:44:24;;;;;;;3.97;3.20;;;23.30;74.50;;;;;;6247845;28;89099;-75
2023/04/17 11:47:26;;;;;;;4.18;3.50;;;23.30;74.60;;;;;;6239757;27;88523;-75
2023/04/17 11:50:29;;;;;;;4.55;3.13;;;23.30;74.50;;;;;;6250538;28;89052;-75
2023/04/17 11:53:35;;;;;;;3.55;3.22;;;23.30;74.50;;;;;;6245937;28;89114;-74
2023/04/17 11:56:37;;;;;;;5.88;3.45;;;23.30;74.50;;;;;;6257547;28;90007;-74
2023/04/17 11:59:41;;;;;;;3.78;3.38;;;23.30;74.50;;;;;;6249514;28;89325;-73
2023/04/17 12:02:43;;;;;;;3.65;3.33;;;23.30;74.60;;;;;;6252107;28;89401;-73
2023/04/17 12:05:58;;;;;;;3.35;3.05;;;23.30;74.60;;;;;;6257127;28;89207;-74
2023/04/17 12:09:02;;;;;;;4.30;3.40;;;23.20;74.50;;;;;;6250281;28;89106;-73
2023/04/17 12:12:06;;;;;;;3.20;2.90;;;23.30;74.60;;;;;;6250801;27;89488;-74
2023/04/17 12:15:08;;;;;;;3.85;3.08;;;23.30;74.60;;;;;;6252276;28;87968;-72
2023/04/17 12:18:10;;;;;;;3.40;3.10;;;23.30;74.60;;;;;;6254965;28;88350;-73
2023/04/17 12:21:13;;;;;;;3.40;3.05;;;23.30;74.70;;;;;;6255627;28;89144;-73
2023/04/17 12:24:18;;;;;;;3.42;3.00;;;23.20;74.50;;;;;;6252105;28;89199;-73
2023/04/17 12:27:20;;;;;;;3.22;2.92;;;23.30;74.70;;;;;;6255559;28;90044;-74
2023/04/17 12:30:22;;;;;;;3.40;3.10;;;23.30;74.70;;;;;;6252507;28;89389;-73
2023/04/17 12:33:25;;;;;;;3.10;2.78;;;23.30;74.70;;;;;;6256947;28;89065;-73
2023/04/17 12:36:27;;;;;;;5.18;3.30;;;23.20;74.60;;;;;;6257473;28;89036;-74
2023/04/17 12:39:31;;;;;;;3.17;2.88;;;23.30;74.70;;;;;;6256213;28;89139;-73
2023/04/17 12:42:33;;;;;;;3.00;2.70;;;23.30;74.70;;;;;;6256776;28;89027;-73
2023/04/17 12:45:35;;;;;;;3.08;2.78;;;23.30;74.70;;;;;;6253677;28;88061;-73
2023/04/17 12:48:38;;;;;;;3.00;2.70;;;23.30;74.70;;;;;;6248764;28;88330;-73
2023/04/17 12:51:40;;;;;;;3.55;3.25;;;23.20;74.70;;;;;;6256449;28;89080;-73
2023/04/17 12:54:43;;;;;;;2.97;2.70;;;23.20;74.70;;;;;;6251787;28;88882;-73
2023/04/17 12:57:46;;;;;;;4.05;3.17;;;23.30;74.70;;;;;;6245413;28;90363;-72
2023/04/17 13:00:48;;;;;;;3.13;2.83;;;23.20;74.70;;;;;;6255475;28;89137;-73
2023/04/17 13:03:50;;;;;;;3.13;2.83;;;23.20;74.70;;;;;;6253065;28;89067;-73
2023/04/17 13:06:52;;;;;;;3.47;2.75;;;23.20;74.70;;;;;;6250103;28;89254;-73
2023/04/17 13:09:55;;;;;;;3.13;2.83;;;23.20;74.70;;;;;;6248890;28;89425;-73
2023/04/17 13:12:57;;;;;;;2.97;2.78;;;23.20;74.70;;;;;;6244637;28;88843;-73
2023/04/17 13:15:59;;;;;;;3.20;2.90;;;23.20;74.70;;;;;;6256403;28;89081;-73
2023/04/17 13:19:02;;;;;;;2.97;2.78;;;23.20;74.70;;;;;;6251308;28;88178;-73
2023/04/17 13:22:04;;;;;;;3.28;2.95;;;23.30;74.80;;;;;;6253956;28;88997;-74
2023/04/17 13:25:08;;;;;;;5.03;2.95;;;23.20;74.70;;;;;;6254299;28;89482;-73
2023/04/17 13:28:11;;;;;;;2.80;2.60;;;23.20;74.70;;;;;;6251681;28;90445;-73
2023/04/17 13:31:13;;;;;;;3.75;3.10;;;23.30;74.80;;;;;;6254924;28;89126;-73
2023/04/17 13:34:15;;;;;;;2.92;2.63;;;23.20;74.70;;;;;;6252591;28;88996;-74
2023/04/17 13:37:17;;;;;;;2.70;2.50;;;23.20;74.70;;;;;;6253656;28;89174;-74
2023/04/17 13:40:20;;;;;;;2.92;2.63;;;23.20;74.80;;;;;;6255140;28;89056;-73
2023/04/17 13:43:23;;;;;;;3.38;2.50;;;23.20;74.80;;;;;;6253054;28;89516;-74
2023/04/17 13:46:25;;;;;;;2.80;2.55;;;23.20;74.80;;;;;;6248482;28;89518;-74
2023/04/17 13:49:27;;;;;;;2.50;2.30;;;23.20;74.80;;;;;;6250296;28;88388;-74
2023/04/17 13:52:29;;;;;;;2.92;2.60;;;23.20;74.90;;;;;;6252977;28;89106;-75
2023/04/17 13:55:32;;;;;;;2.85;2.60;;;23.20;74.90;;;;;;6249789;28;89236;-73
2023/04/17 13:58:34;;;;;;;4.88;2.65;;;23.20;74.90;;;;;;6253740;28;89930;-74
2023/04/17 14:01:36;;;;;;;3.38;2.47;;;23.20;74.90;;;;;;6254672;28;89010;-74
2023/04/17 14:04:38;;;;;;;2.90;2.60;;;23.20;74.90;;;;;;6255072;28;89214;-75
2023/04/17 14:07:40;;;;;;;2.67;2.25;;;23.20;74.90;;;;;;6255836;28;89185;-75
2023/04/17 14:10:44;;;;;;;2.85;2.50;;;23.20;74.90;;;;;;6234676;28;89086;-75
2023/04/17 14:13:46;;;;;;;3.17;2.40;;;23.20;74.80;;;;;;6245084;28;89040;-75
2023/04/17 14:16:49;;;;;;;2.85;2.58;;;23.20;74.80;;;;;;6250092;28;89044;-74
2023/04/17 14:19:52;;;;;;;2.92;2.40;;;23.20;74.80;;;;;;6245466;28;88449;-75
2023/04/17 14:22:54;;;;;;;3.20;2.50;;;23.10;74.70;;;;;;6246860;28;89061;-74
2023/04/17 14:25:58;;;;;;;2.60;2.40;;;23.10;74.70;;;;;;6252326;28;88471;-75
2023/04/17 14:29:00;;;;;;;2.80;2.25;;;23.20;74.80;;;;;;6248319;28;90210;-74
2023/04/17 14:32:02;;;;;;;2.67;2.47;;;23.20;74.80;;;;;;6255222;28;89230;-74
2023/04/17 14:35:04;;;;;;;2.75;2.42;;;23.20;74.70;;;;;;6247056;28;88989;-75
2023/04/17 14:38:06;;;;;;;2.53;2.33;;;23.20;74.70;;;;;;6254633;28;89032;-74
2023/04/17 14:41:10;;;;;;;2.97;2.50;;;23.20;74.70;;;;;;6250163;28;89076;-73
2023/04/17 14:44:12;;;;;;;2.65;2.40;;;23.20;74.70;;;;;;6249795;28;88735;-75
2023/04/17 14:47:14;;;;;;;4.35;2.65;;;23.20;74.90;;;;;;6240862;28;89045;-74
2023/04/17 14:50:16;;;;;;;3.13;2.40;;;23.10;74.70;;;;;;6251831;28;88298;-77
2023/04/17 14:53:18;;;;;;;3.90;2.28;;;23.10;74.80;;;;;;6251176;28;89111;-76
2023/04/17 14:56:21;;;;;;;2.92;2.28;;;23.10;74.80;;;;;;6241112;28;89116;-74
2023/04/17 14:59:24;;;;;;;3.83;2.30;;;23.10;74.80;;;;;;6253525;28;90172;-76
2023/04/17 15:02:26;;;;;;;3.45;2.50;;;23.20;74.90;;;;;;6255231;28;89099;-76
2023/04/17 15:05:28;;;;;;;2.53;2.33;;;23.10;74.90;;;;;;6242042;28;89103;-75
2023/04/17 15:08:30;;;;;;;2.70;2.50;;;23.10;74.90;;;;;;6255654;28;89069;-75
2023/04/17 15:11:33;;;;;;;3.20;2.20;;;23.20;75.00;;;;;;6242993;28;89049;-73
2023/04/17 15:14:35;;;;;;;2.40;2.20;;;23.20;75.00;;;;;;6247493;28;89758;-72
2023/04/17 15:17:37;;;;;;;2.88;2.33;;;23.20;75.00;;;;;;6251155;28;89073;-73
2023/04/17 15:20:40;;;;;;;4.53;2.40;;;23.20;75.00;;;;;;6251261;28;88251;-74
2023/04/17 15:23:42;;;;;;;3.15;2.33;;;23.10;75.00;;;;;;6252653;28;89107;-73
2023/04/17 15:26:46;;;;;;;3.13;2.13;;;23.10;74.90;;;;;;6254268;28;88294;-73
2023/04/17 15:29:48;;;;;;;2.40;2.20;;;23.10;74.90;;;;;;6254741;28;90397;-72
2023/04/17 15:32:50;;;;;;;4.18;2.50;;;23.10;75.00;;;;;;6253489;27;89525;-72
2023/04/17 15:35:55;;;;;;;3.67;2.60;;;23.10;75.00;;;;;;6250697;27;89061;-72
2023/04/17 15:38:57;;;;;;;3.42;2.30;;;23.10;75.00;;;;;;6252955;27;89171;-71
2023/04/17 15:42:00;;;;;;;3.50;2.55;;;23.10;74.90;;;;;;6254069;28;89615;-72
2023/04/17 15:45:02;;;;;;;3.22;2.42;;;23.10;75.00;;;;;;6251614;28;89084;-72
2023/04/17 15:48:05;;;;;;;2.60;2.30;;;23.10;75.00;;;;;;6240933;28;89904;-72